Time;durP1;ratioP1;P1;durP2;ratioP2;P2;SDS_P1;SDS_P2;PMS_P1;PMS_P2;Temp;Humidity;BMP_temperature;BMP_pressure;BME280_temperature;BME280_humidity;BME280_pressure;Samples;Min_cycle;Max_cycle;Signal;HPM_P1;HPM_P2
2021/03/06 00:00:57;;;;;;;15.32;7.43;;;;;;;4.18;46.13;102483.81;5077025;28;20083;-61
2021/03/06 00:03:27;;;;;;;12.50;7.40;;;;;;;3.96;46.61;102489.94;5093836;28;20207;-65
2021/03/06 00:05:55;;;;;;;11.45;7.40;;;;;;;4.09;46.76;102482.47;5094885;28;20387;-64
2021/03/06 00:08:26;;;;;;;13.65;7.75;;;;;;;4.05;46.61;102489.41;5094085;28;20052;-65
2021/03/06 00:10:55;;;;;;;12.32;8.05;;;;;;;4.00;46.77;102489.25;5093882;28;20072;-64
2021/03/06 00:13:24;;;;;;;16.38;8.68;;;;;;;3.97;47.01;102483.44;5076494;28;20044;-63
2021/03/06 00:15:57;;;;;;;12.52;8.23;;;;;;;3.96;46.76;102482.59;5076648;28;20048;-64
2021/03/06 00:18:28;;;;;;;13.57;8.63;;;;;;;3.98;46.75;102490.53;5077593;28;20051;-65
2021/03/06 00:20:55;;;;;;;15.73;9.25;;;;;;;3.92;47.13;102495.03;5076043;28;20040;-62
2021/03/06 00:23:40;;;;;;;14.55;8.80;;;;;;;3.89;47.24;102492.72;5093973;28;20044;-61
2021/03/06 00:26:07;;;;;;;13.77;9.05;;;;;;;3.92;47.54;102497.75;5094340;28;20056;-63
2021/03/06 00:28:34;;;;;;;16.08;9.82;;;;;;;3.79;47.45;102494.31;5076043;28;20502;-65
2021/03/06 00:31:02;;;;;;;16.08;10.43;;;;;;;3.93;47.45;102490.38;5094287;28;20044;-65
2021/03/06 00:33:29;;;;;;;15.48;9.70;;;;;;;3.90;47.40;102491.69;5094132;28;20044;-63
2021/03/06 00:35:57;;;;;;;17.55;10.07;;;;;;;3.84;47.41;102494.47;5093936;28;20059;-65
2021/03/06 00:38:24;;;;;;;15.38;10.52;;;;;;;3.83;47.62;102496.38;5094347;28;20055;-66
2021/03/06 00:40:52;;;;;;;13.70;9.70;;;;;;;3.80;47.70;102494.09;5093413;28;20517;-67
2021/03/06 00:43:20;;;;;;;17.15;9.90;;;;;;;3.84;48.08;102492.56;5094151;28;20048;-66
2021/03/06 00:45:47;;;;;;;14.13;9.05;;;;;;;3.86;47.78;102500.53;5093484;28;20063;-66
2021/03/06 00:48:14;;;;;;;16.38;11.23;;;;;;;3.76;48.30;102498.34;5075379;28;20513;-64
2021/03/06 00:50:42;;;;;;;15.27;10.02;;;;;;;3.85;48.22;102488.81;5059491;28;20047;-66
2021/03/06 00:53:13;;;;;;;18.23;10.18;;;;;;;3.54;48.66;102494.34;5093520;28;20055;-66
2021/03/06 00:55:41;;;;;;;15.80;9.95;;;;;;;3.56;48.74;102496.88;5075141;28;20052;-67
2021/03/06 00:58:08;;;;;;;16.08;10.40;;;;;;;3.54;48.78;102497.06;5074980;28;20059;-69
2021/03/06 01:00:36;;;;;;;16.58;10.55;;;;;;;3.53;49.02;102503.59;5075675;28;20040;-66
2021/03/06 01:03:07;;;;;;;15.02;10.55;;;;;;;3.65;48.76;102496.34;5092658;28;20051;-65
2021/03/06 01:10:10;;;;;;;16.40;10.63;;;;;;;3.48;49.49;102495.25;5076027;28;20036;-68
2021/03/06 01:12:37;;;;;;;17.45;10.65;;;;;;;3.50;49.48;102498.59;5093094;28;20059;-68
2021/03/06 01:15:11;;;;;;;18.05;11.13;;;;;;;3.47;49.38;102490.84;5090326;28;20043;-66
2021/03/06 01:17:39;;;;;;;18.13;10.98;;;;;;;3.47;49.74;102498.19;5093307;28;20048;-68
2021/03/06 01:24:33;;;;;;;14.73;10.43;;;;;;;3.53;49.57;102492.69;5093509;28;20048;-69
2021/03/06 01:27:07;;;;;;;16.70;10.43;;;;;;;3.54;50.04;102485.34;5092446;28;20475;-64
2021/03/06 01:29:34;;;;;;;14.85;9.48;;;;;;;3.65;49.75;102481.88;5076396;28;20060;-69
2021/03/06 01:32:01;;;;;;;23.52;14.32;;;;;;;3.45;49.95;102487.53;5092899;28;20114;-67
2021/03/06 01:34:35;;;;;;;20.83;12.02;;;;;;;3.51;50.14;102478.44;5093165;28;20048;-69
2021/03/06 01:37:02;;;;;;;16.15;10.63;;;;;;;3.50;50.13;102479.53;5074732;28;20047;-66
2021/03/06 01:39:32;;;;;;;16.10;9.50;;;;;;;3.48;50.09;102478.91;5093242;28;20395;-68
2021/03/06 01:41:59;;;;;;;;;;;;;;;3.48;50.29;102476.19;5059102;28;20051;-67
2021/03/06 01:44:26;;;;;;;23.38;10.50;;;;;;;3.49;50.32;102475.13;5093154;28;19920;-67
2021/03/06 01:46:54;;;;;;;16.88;10.65;;;;;;;3.49;50.42;102472.38;5092661;28;20494;-67
2021/03/06 01:49:24;;;;;;;;;;;;;;;3.38;50.44;102470.41;5093940;28;20047;-66
2021/03/06 01:51:50;;;;;;;15.50;10.32;;;;;;;3.38;50.84;102475.88;5093912;28;20015;-67
2021/03/06 01:54:22;;;;;;;17.52;10.73;;;;;;;3.38;50.69;102479.41;5075336;28;20398;-66
2021/03/06 01:56:51;;;;;;;15.45;9.45;;;;;;;3.38;51.23;102471.22;5076054;28;20059;-65
2021/03/06 01:59:20;;;;;;;16.27;10.75;;;;;;;3.40;51.00;102480.00;5091831;28;20051;-69
2021/03/06 02:01:47;;;;;;;16.50;11.10;;;;;;;3.32;51.52;102474.84;5074602;28;20055;-64
2021/03/06 02:04:18;;;;;;;18.33;11.43;;;;;;;3.40;51.26;102476.44;5092642;28;20387;-68
2021/03/06 02:06:58;;;;;;;19.05;11.25;;;;;;;3.51;51.21;102474.88;5074522;28;20048;-67
2021/03/06 02:09:40;;;;;;;19.58;10.30;;;;;;;3.39;51.29;102472.91;5058461;28;20044;-67
2021/03/06 02:12:15;;;;;;;15.50;10.88;;;;;;;3.24;51.97;102475.13;5057164;28;20052;-67
2021/03/06 02:15:22;;;;;;;18.27;10.85;;;;;;;3.33;51.41;102479.25;5092611;28;20478;-67
2021/03/06 02:18:01;;;;;;;18.40;10.25;;;;;;;3.49;51.51;102475.13;5092624;28;20048;-71
2021/03/06 02:20:42;;;;;;;18.35;11.38;;;;;;;3.35;51.44;102481.72;5059668;28;20051;-67
2021/03/06 02:23:47;;;;;;;15.05;10.77;;;;;;;3.13;52.38;102467.69;5092165;28;20059;-68
2021/03/06 02:26:40;;;;;;;18.00;11.35;;;;;;;3.12;52.43;102476.09;5074665;28;20044;-66
2021/03/06 02:29:38;;;;;;;17.55;11.40;;;;;;;3.06;52.60;102472.34;5091872;28;20059;-64
2021/03/06 02:32:22;;;;;;;16.33;10.60;;;;;;;3.11;52.85;102472.53;5060795;28;20048;-67
2021/03/06 02:39:25;;;;;;;17.73;10.98;;;;;;;3.20;52.64;102473.91;5096087;28;20048;-65
2021/03/06 02:41:56;;;;;;;17.85;11.35;;;;;;;3.04;53.07;102468.16;5061714;28;20051;-65
2021/03/06 02:44:26;;;;;;;19.30;11.50;;;;;;;3.28;52.72;102475.50;5096482;28;20047;-63
2021/03/06 02:46:59;;;;;;;16.00;11.45;;;;;;;3.10;53.18;102467.31;5061202;28;20210;-65
2021/03/06 02:53:55;;;;;;;16.85;11.25;;;;;;;3.16;52.86;102466.41;5096163;28;20032;-63
2021/03/06 02:56:32;;;;;;;16.55;10.93;;;;;;;3.09;52.94;102460.19;5063015;28;20048;-66
2021/03/06 02:59:15;;;;;;;19.80;11.80;;;;;;;3.22;53.01;102466.38;5077251;28;20055;-66
2021/03/06 03:02:10;;;;;;;19.67;11.95;;;;;;;3.18;52.94;102459.69;5095440;28;20048;-66
2021/03/06 03:04:51;;;;;;;17.17;11.40;;;;;;;3.16;52.94;102458.22;5061390;28;20379;-64
2021/03/06 03:07:42;;;;;;;19.52;10.95;;;;;;;3.11;53.55;102458.91;5078311;28;20044;-64
2021/03/06 03:10:14;;;;;;;18.38;12.00;;;;;;;3.29;52.76;102466.31;5095031;28;20052;-64
2021/03/06 03:12:55;;;;;;;16.48;11.75;;;;;;;3.18;53.25;102462.41;5077929;28;20048;-65
2021/03/06 03:15:42;;;;;;;17.75;12.00;;;;;;;3.13;53.44;102454.09;5077807;28;20052;-64
2021/03/06 03:18:30;;;;;;;18.83;12.05;;;;;;;3.13;53.41;102462.25;5077888;28;20055;-66
2021/03/06 03:20:59;;;;;;;18.17;11.23;;;;;;;3.03;53.20;102459.16;5060660;28;20055;-66
2021/03/06 03:23:39;;;;;;;20.05;12.07;;;;;;;2.98;53.73;102459.00;5095862;28;20044;-66
2021/03/06 03:26:12;;;;;;;19.63;12.10;;;;;;;3.06;53.60;102458.75;5076874;28;20044;-66
2021/03/06 03:28:47;;;;;;;17.02;11.35;;;;;;;3.24;53.29;102455.25;5077211;28;20040;-67
2021/03/06 03:31:17;;;;;;;17.92;11.57;;;;;;;3.02;54.08;102460.22;5077807;28;20043;-63
2021/03/06 03:33:45;;;;;;;16.73;12.15;;;;;;;2.85;53.84;102450.94;5095756;28;20044;-64
2021/03/06 03:36:13;;;;;;;20.60;12.32;;;;;;;2.85;54.53;102456.38;5061024;28;20055;-65
2021/03/06 03:38:41;;;;;;;17.60;11.43;;;;;;;2.75;54.68;102461.50;5060545;28;20056;-64
2021/03/06 03:41:10;;;;;;;20.25;11.88;;;;;;;2.89;54.33;102454.06;5061114;28;20052;-67
2021/03/06 03:43:38;;;;;;;24.35;12.32;;;;;;;2.93;54.53;102447.94;5077715;28;20044;-66
2021/03/06 03:46:06;;;;;;;17.35;11.07;;;;;;;2.92;54.25;102442.72;5076236;28;20386;-65
2021/03/06 03:48:36;;;;;;;17.00;11.95;;;;;;;2.95;54.28;102442.28;5095183;28;20475;-66
2021/03/06 03:51:03;;;;;;;;;;;;;;;3.00;54.07;102448.72;5077394;28;20044;-67
2021/03/06 03:53:31;;;;;;;17.38;11.05;;;;;;;2.92;54.57;102450.88;5077272;28;19924;-67
2021/03/06 03:56:00;;;;;;;19.27;11.00;;;;;;;2.96;54.45;102457.56;5094124;28;20044;-65
2021/03/06 03:58:27;;;;;;;20.50;11.77;;;;;;;2.83;54.71;102461.22;5076553;28;20055;-65
2021/03/06 04:00:58;;;;;;;17.55;11.90;;;;;;;2.78;54.84;102455.59;5094873;28;20052;-67
2021/03/06 04:03:28;;;;;;;19.33;11.20;;;;;;;2.89;54.50;102456.78;5077143;28;20404;-63
2021/03/06 04:05:57;;;;;;;17.67;11.63;;;;;;;2.75;54.71;102455.22;5094773;28;20051;-68
2021/03/06 04:08:24;;;;;;;18.48;11.88;;;;;;;2.73;54.99;102457.31;5076371;28;20044;-66
2021/03/06 04:10:52;;;;;;;16.35;11.65;;;;;;;2.68;55.01;102454.41;5095061;28;20052;-67
2021/03/06 04:13:19;;;;;;;19.23;12.07;;;;;;;2.86;54.89;102459.97;5094971;28;20044;-63
2021/03/06 04:15:46;;;;;;;17.92;11.73;;;;;;;2.79;54.59;102456.44;5094097;28;20044;-63
2021/03/06 04:18:13;;;;;;;17.15;11.90;;;;;;;2.81;54.87;102462.47;5093968;28;20052;-64
2021/03/06 04:20:41;;;;;;;20.17;11.80;;;;;;;2.89;54.98;102456.78;5075963;28;20059;-66
2021/03/06 04:23:08;;;;;;;16.92;11.07;;;;;;;2.82;54.89;102462.28;5094548;28;20055;-65
2021/03/06 04:25:35;;;;;;;19.45;12.00;;;;;;;2.78;55.23;102461.03;5076754;28;20044;-67
2021/03/06 04:28:02;;;;;;;19.48;11.88;;;;;;;2.51;55.37;102461.44;5094579;28;20052;-67
2021/03/06 04:30:29;;;;;;;17.35;11.38;;;;;;;2.55;55.57;102462.63;5094240;28;20384;-68
2021/03/06 04:32:57;;;;;;;20.20;11.23;;;;;;;2.56;55.46;102464.31;5110386;28;20376;-67
2021/03/06 04:35:24;;;;;;;19.08;11.60;;;;;;;2.60;55.45;102462.84;5093436;28;20044;-65
2021/03/06 04:37:53;;;;;;;18.83;11.30;;;;;;;2.53;55.86;102465.59;5094286;28;20059;-65
2021/03/06 04:40:20;;;;;;;17.92;11.40;;;;;;;2.57;55.64;102464.09;5092739;28;20052;-66
2021/03/06 04:42:47;;;;;;;17.25;10.82;;;;;;;2.61;56.09;102472.66;5059496;28;20044;-64
2021/03/06 04:45:14;;;;;;;20.00;11.68;;;;;;;2.80;55.15;102472.53;5094386;28;20052;-64
2021/03/06 04:47:44;;;;;;;19.75;11.13;;;;;;;2.67;55.15;102469.91;5094413;28;20047;-65
2021/03/06 04:54:41;;;;;;;15.00;9.93;;;;;;;2.77;55.15;102477.59;5094219;28;20036;-62
2021/03/06 04:57:09;;;;;;;18.50;11.10;;;;;;;2.83;54.86;102477.53;5092539;28;20052;-66
2021/03/06 04:59:36;;;;;;;16.08;10.32;;;;;;;2.80;54.92;102479.88;5092483;28;20055;-67
2021/03/06 05:02:03;;;;;;;16.20;10.95;;;;;;;2.75;55.46;102474.25;5093076;28;20048;-62
2021/03/06 05:04:31;;;;;;;18.63;10.73;;;;;;;2.88;54.92;102475.00;5076077;28;20095;-64
2021/03/06 05:11:35;;;;;;;17.50;10.82;;;;;;;2.60;55.51;102477.25;5093429;28;20423;-67
2021/03/06 05:14:02;;;;;;;16.38;10.27;;;;;;;2.69;55.50;102472.38;5075451;28;20063;-66
2021/03/06 05:16:30;;;;;;;16.95;10.27;;;;;;;2.57;55.98;102471.41;5076053;28;20044;-65
2021/03/06 05:18:58;;;;;;;20.00;11.13;;;;;;;2.68;55.76;102489.78;5093280;28;20055;-66
2021/03/06 05:21:24;;;;;;;19.73;10.70;;;;;;;2.73;55.60;102484.50;5093199;28;20390;-65
2021/03/06 05:23:52;;;;;;;17.00;10.40;;;;;;;2.72;55.41;102493.75;5093255;28;20108;-62
2021/03/06 05:26:19;;;;;;;15.40;10.23;;;;;;;2.77;55.13;102494.72;5058600;28;20070;-65
2021/03/06 05:28:46;;;;;;;16.95;10.48;;;;;;;2.69;55.62;102495.00;5092712;28;20048;-64
2021/03/06 05:31:13;;;;;;;16.85;10.70;;;;;;;2.58;55.86;102500.31;5092921;28;20055;-65
2021/03/06 05:33:40;;;;;;;18.23;10.63;;;;;;;2.48;56.18;102506.19;5092799;28;20044;-66
2021/03/06 05:36:07;;;;;;;18.23;9.95;;;;;;;2.46;56.22;102502.84;5075367;28;20057;-65
2021/03/06 05:38:34;;;;;;;15.32;9.82;;;;;;;2.50;55.64;102511.41;5058489;28;20052;-63
2021/03/06 05:41:01;;;;;;;16.30;9.60;;;;;;;2.48;55.85;102505.34;5074906;28;20056;-65
2021/03/06 05:43:28;;;;;;;16.25;9.50;;;;;;;2.55;55.66;102506.16;5058282;28;20052;-64
2021/03/06 05:45:56;;;;;;;16.40;10.50;;;;;;;2.48;55.67;102502.63;5092820;28;20048;-65
2021/03/06 05:48:23;;;;;;;20.13;11.25;;;;;;;2.55;56.14;102512.44;5092800;28;20505;-66
2021/03/06 05:50:52;;;;;;;18.65;9.82;;;;;;;2.47;55.70;102507.25;5093095;28;20499;-62
2021/03/06 05:53:21;;;;;;;16.67;10.13;;;;;;;2.65;55.48;102512.78;5074495;28;20382;-64
2021/03/06 05:55:51;;;;;;;14.75;9.52;;;;;;;2.63;55.36;102514.94;5074692;28;20286;-65
2021/03/06 05:58:21;;;;;;;13.95;9.05;;;;;;;2.48;55.83;102513.50;5074231;28;20055;-66
2021/03/06 06:00:48;;;;;;;15.38;9.80;;;;;;;2.45;56.08;102516.66;5074773;28;20044;-65
2021/03/06 06:03:17;;;;;;;15.60;9.73;;;;;;;2.36;56.06;102518.81;5092302;28;20474;-65
2021/03/06 06:05:47;;;;;;;15.48;10.23;;;;;;;2.36;56.65;102513.38;5058075;28;20044;-68
2021/03/06 06:08:15;;;;;;;15.75;9.70;;;;;;;2.57;55.84;102513.06;5074877;28;20048;-67
2021/03/06 06:10:43;;;;;;;14.98;9.73;;;;;;;2.56;55.70;102514.13;5096688;28;20052;-67
2021/03/06 06:13:10;;;;;;;16.20;10.07;;;;;;;2.41;56.23;102510.03;5062885;28;20048;-67
2021/03/06 06:15:38;;;;;;;14.50;9.70;;;;;;;2.43;56.27;102525.06;5078350;28;20044;-65
2021/03/06 06:18:05;;;;;;;15.50;9.30;;;;;;;2.38;56.40;102513.16;5062306;28;20517;-65
2021/03/06 06:20:36;;;;;;;15.95;9.68;;;;;;;2.28;56.71;102510.91;5078829;28;20048;-66
2021/03/06 06:27:33;;;;;;;16.52;9.02;;;;;;;2.17;56.67;102522.44;5097038;28;20043;-65
2021/03/06 06:30:02;;;;;;;15.25;9.80;;;;;;;2.28;57.02;102516.34;5096153;28;20055;-67
2021/03/06 06:32:45;;;;;;;15.50;9.75;;;;;;;2.15;57.07;102522.66;5096220;28;20052;-65
2021/03/06 06:35:16;;;;;;;15.10;9.52;;;;;;;2.19;56.98;102531.22;5096996;28;20044;-68
2021/03/06 06:42:07;;;;;;;18.27;9.52;;;;;;;2.27;56.67;102517.38;5096805;28;20356;-69
2021/03/06 06:44:35;;;;;;;16.60;9.43;;;;;;;2.25;56.22;102523.03;5096820;28;20067;-66
2021/03/06 06:47:12;;;;;;;15.55;9.30;;;;;;;2.18;57.12;102524.09;5078174;28;20055;-64
2021/03/06 06:49:45;;;;;;;15.55;9.10;;;;;;;2.19;57.03;102523.06;5095905;28;20048;-67
2021/03/06 06:52:12;;;;;;;14.20;9.63;;;;;;;2.18;57.17;102521.38;5096230;28;20055;-68
2021/03/06 06:54:39;;;;;;;17.60;9.52;;;;;;;2.32;56.50;102528.44;5078482;28;20047;-67
2021/03/06 06:57:11;;;;;;;16.58;9.80;;;;;;;2.20;56.90;102522.84;5077958;28;20051;-67
2021/03/06 06:59:39;;;;;;;17.55;9.05;;;;;;;2.10;56.83;102521.63;5095346;28;20052;-64
2021/03/06 07:02:08;;;;;;;16.90;8.88;;;;;;;2.13;56.74;102530.19;5096409;28;20059;-64
2021/03/06 07:04:46;;;;;;;16.15;8.63;;;;;;;1.98;56.86;102526.88;5096389;28;20036;-65
2021/03/06 07:07:19;;;;;;;16.38;9.70;;;;;;;2.07;57.47;102531.06;5095860;28;20509;-67
2021/03/06 07:10:04;;;;;;;14.85;8.93;;;;;;;2.22;56.56;102523.47;5061210;28;20048;-67
2021/03/06 07:12:34;;;;;;;13.35;8.73;;;;;;;2.07;56.94;102530.22;5095797;28;20401;-66
2021/03/06 07:15:02;;;;;;;16.08;8.70;;;;;;;1.92;57.07;102526.88;5077697;28;20059;-66
2021/03/06 07:17:40;;;;;;;15.40;9.13;;;;;;;1.98;57.35;102528.75;5077194;28;20044;-66
2021/03/06 07:20:26;;;;;;;13.35;8.52;;;;;;;2.21;56.67;102532.66;5076852;28;20063;-67
2021/03/06 07:22:56;;;;;;;13.63;8.98;;;;;;;2.23;56.48;102541.44;5095259;28;20052;-66
2021/03/06 07:25:24;;;;;;;16.27;8.93;;;;;;;2.23;56.12;102536.00;5095995;28;20328;-68
2021/03/06 07:27:51;;;;;;;16.48;9.82;;;;;;;2.32;56.03;102541.22;5077833;28;20048;-64
2021/03/06 07:30:19;;;;;;;14.02;8.45;;;;;;;2.30;56.05;102527.84;5095704;28;20508;-66
2021/03/06 07:32:47;;;;;;;13.25;8.73;;;;;;;2.51;55.54;102540.31;5077438;28;20052;-63
2021/03/06 07:35:18;;;;;;;13.35;8.10;;;;;;;2.40;55.55;102549.13;5095701;28;20044;-65
2021/03/06 07:37:45;;;;;;;15.73;8.77;;;;;;;2.51;55.18;102545.75;5076977;28;20051;-65
2021/03/06 07:40:14;;;;;;;17.35;8.50;;;;;;;2.63;54.74;102552.16;5077041;28;20513;-69
2021/03/06 07:42:48;;;;;;;14.57;8.95;;;;;;;2.66;54.83;102549.00;5095422;28;20059;-66
2021/03/06 07:45:25;;;;;;;15.50;8.90;;;;;;;2.68;54.55;102545.03;5077934;28;20048;-63
2021/03/06 07:47:55;;;;;;;23.25;9.18;;;;;;;2.75;54.47;102547.72;5094916;28;20052;-65
2021/03/06 07:50:30;;;;;;;14.18;8.73;;;;;;;2.67;54.31;102561.56;5076910;28;20048;-69
2021/03/06 07:52:58;;;;;;;16.67;8.75;;;;;;;2.51;54.17;102553.91;5077340;28;20223;-66
2021/03/06 07:55:26;;;;;;;13.50;8.30;;;;;;;2.50;54.43;102557.66;5060066;28;20390;-66
2021/03/06 07:57:59;;;;;;;15.00;8.95;;;;;;;2.48;54.43;102565.19;5060471;28;20048;-66
2021/03/06 08:00:56;;;;;;;14.90;9.00;;;;;;;2.50;54.52;102563.09;5094622;28;20064;-65
2021/03/06 08:03:27;;;;;;;17.05;8.50;;;;;;;2.66;53.61;102566.16;5094433;28;20069;-65
2021/03/06 08:06:01;;;;;;;15.32;9.07;;;;;;;2.62;54.14;102564.94;5094615;28;20071;-67
2021/03/06 08:08:45;;;;;;;13.55;8.38;;;;;;;2.78;53.73;102583.47;5093772;28;20044;-67
2021/03/06 08:11:16;;;;;;;14.75;9.32;;;;;;;2.72;53.60;102578.09;5093851;28;20067;-67
2021/03/06 08:14:24;;;;;;;14.18;8.82;;;;;;;2.80;53.42;102564.22;5093683;28;20056;-67
2021/03/06 08:16:55;;;;;;;13.85;8.82;;;;;;;2.71;53.34;102570.94;5075903;28;20040;-69
2021/03/06 08:19:25;;;;;;;13.65;8.77;;;;;;;2.86;53.41;102572.34;5077007;28;20044;-67
2021/03/06 08:21:56;;;;;;;12.87;8.47;;;;;;;2.78;52.90;102574.47;5093752;28;20398;-69
2021/03/06 08:24:26;;;;;;;15.88;8.27;;;;;;;2.87;52.35;102570.47;5093385;28;20302;-68
2021/03/06 08:27:02;;;;;;;15.23;8.45;;;;;;;3.07;51.96;102566.56;5093874;28;20052;-65
2021/03/06 08:29:48;;;;;;;14.30;8.48;;;;;;;3.06;51.89;102567.63;5094394;28;20048;-66
2021/03/06 08:32:24;;;;;;;19.30;10.20;;;;;;;3.20;52.06;102577.38;5094187;28;20486;-66
2021/03/06 08:35:26;;;;;;;13.00;8.02;;;;;;;3.28;51.26;102568.09;5076028;28;20052;-68
2021/03/06 08:41:48;;;;;;;15.32;8.73;;;;;;;3.26;50.47;102571.03;5094189;28;20056;-64
2021/03/06 08:44:16;;;;;;;15.35;8.20;;;;;;;3.19;50.79;102577.59;5093928;28;20048;-66
2021/03/06 08:46:43;;;;;;;13.30;7.80;;;;;;;3.20;50.51;102571.09;5093729;28;20048;-64
2021/03/06 08:49:10;;;;;;;13.13;7.10;;;;;;;3.23;49.95;102576.94;5093750;28;20044;-67
2021/03/06 08:51:37;;;;;;;12.95;7.55;;;;;;;3.24;49.94;102573.16;5075479;28;20048;-66
2021/03/06 08:54:05;;;;;;;12.82;7.70;;;;;;;3.37;50.28;102567.63;5059645;28;20051;-67
2021/03/06 08:56:38;;;;;;;12.25;7.50;;;;;;;3.69;49.33;102557.53;5094057;28;20055;-63
2021/03/06 08:59:05;;;;;;;15.68;8.30;;;;;;;3.75;49.01;102561.25;5093338;28;20052;-67
2021/03/06 09:01:34;;;;;;;13.40;7.63;;;;;;;3.59;48.65;102562.63;5093320;28;20059;-67
2021/03/06 09:04:03;;;;;;;12.25;7.20;;;;;;;3.49;47.97;102556.03;5076078;28;20509;-65
2021/03/06 09:06:40;;;;;;;13.65;6.70;;;;;;;3.74;48.56;102559.56;5092034;28;20097;-66
2021/03/06 09:09:10;;;;;;;11.57;7.10;;;;;;;3.90;47.50;102554.38;5059279;28;20051;-67
2021/03/06 09:11:57;;;;;;;11.50;6.97;;;;;;;3.97;47.39;102551.59;5071932;28;20410;-63
2021/03/06 09:14:25;;;;;;;11.77;6.78;;;;;;;4.03;46.39;102547.94;5089946;28;20048;-67
2021/03/06 09:16:52;;;;;;;15.55;7.20;;;;;;;4.18;45.56;102552.00;5092236;28;20039;-68
2021/03/06 09:19:27;;;;;;;11.48;6.60;;;;;;;4.34;45.54;102547.84;5073614;28;20048;-66
2021/03/06 09:22:12;;;;;;;11.55;7.05;;;;;;;4.23;45.37;102551.31;5090896;28;20052;-68
2021/03/06 09:24:49;;;;;;;14.52;6.93;;;;;;;4.17;45.28;102539.41;5091604;28;20047;-66
2021/03/06 09:27:18;;;;;;;11.13;6.60;;;;;;;4.27;45.66;102539.69;5084654;28;20466;-66
2021/03/06 09:29:45;;;;;;;12.43;7.28;;;;;;;4.42;44.55;102545.63;5091851;28;20048;-74
2021/03/06 09:32:13;;;;;;;10.25;6.75;;;;;;;4.24;43.82;102528.41;5073520;28;20056;-67
2021/03/06 09:34:42;;;;;;;11.43;6.25;;;;;;;5.21;49.43;102525.41;5073682;28;20048;-65
2021/03/06 09:37:18;;;;;;;11.60;7.63;;;;;;;5.28;42.49;102528.88;5091428;28;20059;-60
2021/03/06 09:39:45;;;;;;;14.50;6.53;;;;;;;4.76;42.78;102535.94;5073288;28;20055;-61
2021/03/06 09:42:16;;;;;;;10.68;6.63;;;;;;;4.74;42.13;102542.69;5091951;28;20048;-63
2021/03/06 09:44:49;;;;;;;12.02;6.45;;;;;;;4.64;42.36;102534.25;5091581;28;20063;-63
2021/03/06 09:47:23;;;;;;;12.40;6.60;;;;;;;4.37;42.20;102539.19;5107093;28;20055;-63
2021/03/06 09:49:51;;;;;;;10.13;5.55;;;;;;;4.23;41.96;102540.41;5091355;28;20063;-63
2021/03/06 09:52:31;;;;;;;10.85;6.43;;;;;;;4.44;43.50;102535.31;5090024;28;20052;-64
2021/03/06 09:54:58;;;;;;;11.38;5.82;;;;;;;4.48;41.90;102541.97;5073569;28;20047;-65
2021/03/06 09:57:26;;;;;;;9.70;6.15;;;;;;;4.54;41.10;102529.31;5072093;28;20051;-67
2021/03/06 09:59:53;;;;;;;10.55;6.50;;;;;;;4.78;41.54;102531.06;5090641;28;20048;-64
2021/03/06 10:02:23;;;;;;;14.95;5.88;;;;;;;5.16;41.56;102520.63;5091027;28;20079;-65
2021/03/06 10:04:52;;;;;;;14.13;5.47;;;;;;;5.24;41.22;102522.22;5090891;28;20047;-69
2021/03/06 10:07:20;;;;;;;9.40;5.93;;;;;;;4.85;41.60;102525.53;5072851;28;20058;-68
2021/03/06 10:09:48;;;;;;;8.98;5.70;;;;;;;4.89;42.01;102527.56;5073470;28;20047;-65
2021/03/06 10:12:16;;;;;;;11.00;5.85;;;;;;;5.26;42.24;102523.66;5090677;28;20040;-60
2021/03/06 10:14:48;;;;;;;9.23;5.32;;;;;;;5.30;40.64;102526.75;5073451;28;20048;-69
2021/03/06 10:17:25;;;;;;;9.88;5.60;;;;;;;5.33;42.00;102505.25;5074911;28;20047;-75
2021/03/06 10:19:55;;;;;;;9.80;5.32;;;;;;;5.75;41.36;102512.28;5074298;28;20044;-70
2021/03/06 10:22:22;;;;;;;9.73;4.88;;;;;;;6.01;41.42;102511.00;5091186;28;20052;-69
2021/03/06 10:24:49;;;;;;;9.63;5.60;;;;;;;5.65;40.57;102513.94;5091478;28;20052;-70
2021/03/06 10:27:17;;;;;;;11.55;5.10;;;;;;;5.45;40.24;102513.47;5072961;28;20048;-70
2021/03/06 10:29:44;;;;;;;9.98;5.97;;;;;;;5.58;40.52;102518.69;5056897;28;20056;-67
2021/03/06 10:32:11;;;;;;;9.77;5.07;;;;;;;5.71;40.15;102513.84;5073226;28;20051;-67
2021/03/06 10:34:49;;;;;;;9.32;5.28;;;;;;;5.27;40.31;102519.84;5073032;28;20051;-67
2021/03/06 10:37:22;;;;;;;9.38;4.80;;;;;;;5.19;40.41;102514.72;5073488;28;20048;-64
2021/03/06 10:39:51;;;;;;;9.50;4.90;;;;;;;5.48;40.80;102507.50;5091076;28;20044;-66
2021/03/06 10:42:19;;;;;;;13.27;4.72;;;;;;;5.87;40.63;102508.75;5091897;28;20055;-70
2021/03/06 10:44:47;;;;;;;11.52;5.63;;;;;;;6.11;40.10;102513.13;5073891;28;20059;-70
2021/03/06 10:47:15;;;;;;;8.98;4.82;;;;;;;5.86;40.07;102504.38;5072084;28;20051;-73
2021/03/06 10:49:44;;;;;;;10.85;5.63;;;;;;;5.80;39.85;102502.53;5092245;28;20055;-69
2021/03/06 10:52:37;;;;;;;10.02;5.10;;;;;;;5.63;39.77;102521.56;5074370;28;20044;-68
2021/03/06 10:55:05;;;;;;;11.27;5.78;;;;;;;5.50;40.01;102506.22;5089090;28;20055;-67
2021/03/06 10:57:32;;;;;;;8.20;4.78;;;;;;;5.69;40.22;102507.78;5095867;28;20056;-71
2021/03/06 10:59:59;;;;;;;9.95;5.72;;;;;;;5.88;40.21;102500.31;5094910;28;20494;-71
2021/03/06 11:02:29;;;;;;;8.93;5.43;;;;;;;5.95;39.58;102495.53;5094936;28;20059;-67
2021/03/06 11:05:19;;;;;;;13.05;5.18;;;;;;;6.06;39.45;102491.13;5093455;28;20052;-69
2021/03/06 11:07:47;;;;;;;10.20;6.03;;;;;;;5.64;39.59;102496.72;5076551;28;20052;-70
2021/03/06 11:10:19;;;;;;;9.98;5.30;;;;;;;5.79;39.26;102487.22;5075834;28;20501;-67
2021/03/06 11:12:53;;;;;;;10.70;6.40;;;;;;;5.86;39.43;102490.69;5088668;28;20052;-75
2021/03/06 11:15:23;;;;;;;12.50;5.97;;;;;;;6.01;39.09;102477.34;5051310;28;20059;-72
2021/03/06 11:17:54;;;;;;;9.43;5.35;;;;;;;6.07;39.22;102473.63;5069573;28;20059;-68
2021/03/06 11:20:30;;;;;;;10.07;5.88;;;;;;;5.96;39.63;102475.34;5089838;28;20067;-75
2021/03/06 11:23:02;;;;;;;10.93;5.15;;;;;;;6.17;38.87;102460.19;5083382;28;20173;-63
2021/03/06 11:25:29;;;;;;;12.77;6.35;;;;;;;6.20;39.27;102473.38;5064149;28;20199;-71
2021/03/06 11:28:04;;;;;;;10.07;5.78;;;;;;;6.09;39.24;102475.06;5083559;28;20051;-68
2021/03/06 11:30:34;;;;;;;10.73;6.00;;;;;;;5.93;39.78;102481.28;5085134;28;20056;-73
2021/03/06 11:33:03;;;;;;;10.70;6.50;;;;;;;5.79;39.99;102479.00;5083650;28;20052;-62
2021/03/06 11:35:34;;;;;;;13.98;6.43;;;;;;;5.84;39.76;102482.69;5067312;28;20214;-66
2021/03/06 11:38:03;;;;;;;9.85;6.28;;;;;;;5.88;40.09;102472.13;5083081;28;20044;-65
2021/03/06 11:40:32;;;;;;;16.73;6.90;;;;;;;6.02;39.82;102468.91;5084995;28;20063;-64
2021/03/06 11:47:28;;;;;;;9.68;6.60;;;;;;;6.13;39.68;102453.53;5064649;28;20124;-71
2021/03/06 11:49:55;;;;;;;12.55;6.65;;;;;;;6.00;39.41;102460.09;5048831;28;20382;-67
2021/03/06 11:52:22;;;;;;;9.55;6.15;;;;;;;6.18;39.57;102448.16;5086023;28;20044;-67
2021/03/06 11:54:49;;;;;;;11.07;6.60;;;;;;;6.05;39.94;102460.19;5083146;28;20474;-66
2021/03/06 12:01:52;;;;;;;10.55;6.45;;;;;;;6.40;39.18;102451.88;5042453;28;20055;-64
2021/03/06 12:04:26;;;;;;;13.38;7.32;;;;;;;6.48;39.37;102440.56;5065297;28;20060;-69
2021/03/06 12:06:55;;;;;;;12.45;6.72;;;;;;;6.32;39.12;102439.44;5061096;28;20523;-71
2021/03/06 12:09:23;;;;;;;10.82;6.28;;;;;;;6.34;38.90;102445.50;5044973;28;20067;-67
2021/03/06 12:16:18;;;;;;;12.27;6.50;;;;;;;6.21;38.35;102439.47;5063881;28;20056;-62
2021/03/06 12:18:46;;;;;;;13.13;6.47;;;;;;;6.36;38.45;102429.66;5072465;28;20052;-63
2021/03/06 12:21:13;;;;;;;12.95;6.50;;;;;;;6.52;38.51;102419.84;5072898;28;20057;-68
2021/03/06 12:23:40;;;;;;;11.20;6.28;;;;;;;6.52;37.90;102425.34;5071727;28;20040;-67
2021/03/06 12:26:07;;;;;;;12.20;6.05;;;;;;;6.69;37.51;102407.03;5073643;28;20048;-72
2021/03/06 12:28:34;;;;;;;11.18;6.40;;;;;;;6.73;37.43;102402.69;5055361;28;20045;-66
2021/03/06 12:31:02;;;;;;;8.25;5.60;;;;;;;6.62;36.89;102398.13;5054822;28;20078;-64
2021/03/06 12:33:30;;;;;;;9.35;6.10;;;;;;;6.73;37.09;102392.59;5072590;28;20475;-63
2021/03/06 12:35:57;;;;;;;11.90;6.32;;;;;;;6.74;37.00;102394.25;5071901;28;20044;-64